YMML/MEL METAR and TAF weather

Enter ICAO airport designator
Station Type Date Time Source
YMML METAR 2023/02/05 23:30 UTC NOAA

YMML 052330Z 21006KT 9999 FEW024 BKN028 17/10 Q1020 RF00.0/000.0


Station Type Date Time Source
YMML Decoded METAR 2023/02/05 23:30 UTC NOAA

Melbourne Airport, Australia (YMML) 37-40S 144-50E 141M
Feb 05, 2023 - 06:30 PM EST / 2023.02.05 2330 UTC
Wind: from the SSW (210 degrees) at 7 MPH (6 KT):0
Visibility: greater than 7 mile(s):0
Sky conditions: mostly cloudy
Temperature: 62 F (17 C)
Dew Point: 50 F (10 C)
Relative Humidity: 63%
Pressure (altimeter): 30.12 in. Hg (1020 hPa)
ob: YMML 052330Z 21006KT 9999 FEW024 BKN028 17/10 Q1020 RF00.0/000.0
cycle: 23

Station Type Date Time Source
YMML TAF 2023/02/05 21:48 UTC NOAA

TAF YMML 052005Z 0521/0700 23008KT 9999 FEW015 BKN030
FM060100 19012KT 9999 BKN030
FM061500 18008KT 9999 -DZ BKN015
FM062300 17010KT 9999 -DZ SCT015 BKN020 INTER 0615/0700 4000 DZ BKN012

Example: see airport list